Tinian, MP

9:41 AM ChST on September 18, 2014 (GMT +1000)
Red Cross-Airport | Change Station
CLOSE
Current Station
Personal Weather Station
Location: Saipan, MP
Elevation: 215 ft
Nearby Weather Stations

Elev 215 ft 15.13 °N, 145.72 °E | Updated 29 minutes ago

Partly Cloudy
Partly Cloudy
86.5 °F
Feels Like 102 °F
N
1.0
Wind Variable Wind from NW
Gusts 5.0 mph

Today
High -- | Low -- °F
--% Chance of Precip.
Yesterday
High -- | Low -- °F
Precip. -- in
6:06 AM 6:17 PM
Waning Crescent, 32% visible
Pressure 30.02 in
Visibility 10.0 miles
Clouds Few 2200 ft
Heat Index 102 °F
Dew Point 80 °F
Humidity 82%
Rainfall -999.00 in
Snow Depth Not available.
UV 6 out of 12
Pollen Not available.
Air Quality Not available.
Flu Activity Not available.
METAR PGSN 172254Z 34003KT 10SM FEW022 30/23 A2996 RMK AO2 SLP166 T03000233

More Conditions Fewer Conditions

Pressure 30.02 in
Visibility 10.0 miles
Clouds Few 2200 ft
Heat Index 102 °F
Dew Point 80 °F
Humidity 82%
Rainfall -999.00 in
Snow Depth Not available.
UV 6 out of 12
Pollen Not available.
Air Quality Not available.
Flu Activity Not available.
METAR PGSN 172254Z 34003KT 10SM FEW022 30/23 A2996 RMK AO2 SLP166 T03000233

More Conditions Fewer Conditions

10-Day Weather Forecast

Almanac

Astronomy

Sep. 18, 2014 Rise Set
Actual Time 6:06 AM ChST 6:17 PM ChST
Civil Twilight 5:44 AM ChST 6:38 PM ChST
Nautical Twilight 5:19 AM ChST 7:03 PM ChST
Astronomical Twilight 4:54 AM ChST 7:28 PM ChST
Moon 1:02 AM ChST (9/18) 2:05 PM ChST (9/18)
Length of Visible Light 12h 53m
Length of Day
12h 10m
Tomorrow will be 0m 49s shorter.
Waning Crescent, 32% of the Moon is Illuminated
Sep 17
Waning Crescent
Sep 24
New
Oct 1
First Quarter
Oct 8
Full
Oct 15
Last Quarter

Community

WunderPhotos

Upload Photos

1,754,198 photos uploaded!

Nearby

Snow Depth

Station Depth Elevation
No new snow has been reported.

Earthquake Activity

City Distance Mag. Time & Date
No recent earthquake activity has been reported nearby.
Minimum magnitude displayed is 2.5.

Coastal Water Temperatures

Place Temperature
No Stations Reporting

Nearby Weather Stations